Time;durP1;ratioP1;P1;durP2;ratioP2;P2;SDS_P1;SDS_P2;PMS_P1;PMS_P2;Temp;Humidity;BMP_temperature;BMP_pressure;BME280_temperature;BME280_humidity;BME280_pressure;Samples;Min_cycle;Max_cycle;Signal;HPM_P1;HPM_P2
2023/01/13 00:00:53;;;;;;;1.80;0.97;;;10.50;99.90;;;;;;5035001;28;20853;-80
2023/01/13 00:03:20;;;;;;;2.90;1.10;;;10.50;99.90;;;;;;5037411;28;20471;-82
2023/01/13 00:05:47;;;;;;;2.67;0.90;;;10.50;99.90;;;;;;5039677;28;20486;-83
2023/01/13 00:08:14;;;;;;;3.37;1.10;;;10.50;99.90;;;;;;5040904;28;20455;-83
2023/01/13 00:10:41;;;;;;;2.50;1.00;;;10.40;99.90;;;;;;5042493;28;20494;-78
2023/01/13 00:13:07;;;;;;;2.27;1.20;;;10.40;99.90;;;;;;5042895;28;20494;-79
2023/01/13 00:15:36;;;;;;;2.13;1.10;;;10.50;99.90;;;;;;5037144;28;20457;-79
2023/01/13 00:18:02;;;;;;;2.37;1.20;;;10.50;99.90;;;;;;5034783;28;20467;-79
2023/01/13 00:20:29;;;;;;;1.77;1.00;;;10.50;99.90;;;;;;5033826;28;20455;-80
2023/01/13 00:22:57;;;;;;;1.57;0.80;;;10.50;99.90;;;;;;5035443;28;20470;-79
2023/01/13 00:25:26;;;;;;;3.03;1.03;;;10.30;99.90;;;;;;5035941;28;21189;-79
2023/01/13 00:27:53;;;;;;;2.27;1.07;;;10.20;99.90;;;;;;5035788;28;20860;-79
2023/01/13 00:30:20;;;;;;;2.30;1.10;;;10.20;99.90;;;;;;5034926;28;20468;-78
2023/01/13 00:32:48;;;;;;;1.70;0.90;;;10.10;99.90;;;;;;5031129;28;20449;-79
2023/01/13 00:35:15;;;;;;;1.80;0.90;;;10.10;99.90;;;;;;5032608;28;20482;-80
2023/01/13 00:37:41;;;;;;;1.50;0.90;;;10.10;99.90;;;;;;5032610;28;20441;-78
2023/01/13 00:40:10;;;;;;;1.80;1.00;;;10.10;99.90;;;;;;5032504;28;21018;-80
2023/01/13 00:45:21;;;;;;;4.27;1.30;;;10.00;99.90;;;;;;5034258;28;20505;-80
2023/01/13 00:47:49;;;;;;;4.10;1.60;;;10.10;99.90;;;;;;5033866;28;20896;-80
2023/01/13 00:50:16;;;;;;;3.00;1.20;;;10.10;99.90;;;;;;5033650;28;20447;-80
2023/01/13 00:52:43;;;;;;;5.00;0.90;;;10.10;99.90;;;;;;5030335;28;20490;-80
2023/01/13 00:55:10;;;;;;;4.60;1.00;;;10.10;99.90;;;;;;5032702;28;20913;-79
2023/01/13 00:57:36;;;;;;;2.07;0.70;;;10.00;99.90;;;;;;5032615;28;20517;-80
2023/01/13 01:00:04;;;;;;;1.80;1.10;;;10.00;99.90;;;;;;5032598;28;20450;-79
2023/01/13 01:02:31;;;;;;;1.70;0.90;;;10.00;99.90;;;;;;5033486;28;20458;-80
2023/01/13 01:04:59;;;;;;;2.40;1.10;;;9.90;99.90;;;;;;5032731;28;20474;-78
2023/01/13 01:07:26;;;;;;;1.93;0.93;;;10.00;99.90;;;;;;5032958;28;20481;-80
2023/01/13 01:09:53;;;;;;;3.50;1.00;;;10.00;99.90;;;;;;5034799;28;20530;-81
2023/01/13 01:12:20;;;;;;;4.57;1.20;;;9.90;99.90;;;;;;5037510;28;20486;-80
2023/01/13 01:14:47;;;;;;;2.10;1.10;;;9.90;99.90;;;;;;5039282;28;20550;-80
2023/01/13 01:17:13;;;;;;;2.03;1.00;;;9.90;99.90;;;;;;5038028;28;20541;-80
2023/01/13 01:19:41;;;;;;;4.10;1.40;;;9.90;99.90;;;;;;5036724;28;20997;-81
2023/01/13 01:22:09;;;;;;;7.23;1.20;;;9.90;99.90;;;;;;5037004;28;20462;-81
2023/01/13 01:24:36;;;;;;;3.97;1.00;;;9.90;99.90;;;;;;5037738;28;20561;-80
2023/01/13 01:27:02;;;;;;;5.93;1.53;;;9.80;99.90;;;;;;5037143;28;20645;-81
2023/01/13 01:29:29;;;;;;;3.87;1.20;;;9.80;99.90;;;;;;5056168;28;20457;-80
2023/01/13 01:31:57;;;;;;;5.50;1.10;;;9.80;99.90;;;;;;5053407;28;20483;-80
2023/01/13 01:34:24;;;;;;;7.93;1.30;;;9.80;99.90;;;;;;5038475;28;20481;-81
2023/01/13 01:36:51;;;;;;;8.30;1.63;;;9.80;99.90;;;;;;5038043;28;20464;-81
2023/01/13 01:39:19;;;;;;;6.70;1.20;;;9.70;99.90;;;;;;5039282;28;20464;-79
2023/01/13 01:44:56;;;;;;;6.80;1.20;;;9.80;99.90;;;;;;5037260;28;20986;-79
2023/01/13 01:47:25;;;;;;;8.10;1.37;;;9.80;99.90;;;;;;5038992;28;20454;-79
2023/01/13 01:49:52;;;;;;;5.90;1.60;;;9.80;99.90;;;;;;5038696;28;21032;-78
2023/01/13 01:52:24;;;;;;;2.10;0.93;;;9.80;99.90;;;;;;5039005;28;20493;-80
2023/01/13 01:54:57;;;;;;;11.87;1.97;;;9.80;99.90;;;;;;5037573;28;20473;-80
2023/01/13 01:57:27;;;;;;;4.80;1.47;;;9.80;99.90;;;;;;5044322;28;20566;-78
2023/01/13 01:59:57;;;;;;;4.63;1.77;;;9.80;99.90;;;;;;5041703;28;20519;-80
2023/01/13 02:02:24;;;;;;;9.40;2.30;;;9.80;99.90;;;;;;5029891;28;20448;-80
2023/01/13 02:04:54;;;;;;;5.07;1.43;;;9.80;99.90;;;;;;5023042;28;20480;-82
2023/01/13 02:07:26;;;;;;;7.07;1.57;;;9.80;99.90;;;;;;5039722;28;20464;-82
2023/01/13 02:09:56;;;;;;;6.87;1.63;;;9.80;99.90;;;;;;5038406;28;20516;-81
2023/01/13 02:12:29;;;;;;;7.30;1.87;;;9.90;99.90;;;;;;5039687;28;20482;-82
2023/01/13 02:14:57;;;;;;;7.67;1.60;;;9.80;99.90;;;;;;5039595;28;20488;-80
2023/01/13 02:17:38;;;;;;;11.53;1.73;;;9.80;99.90;;;;;;5039966;28;20451;-83
2023/01/13 02:20:51;;;;;;;8.83;1.70;;;9.70;99.90;;;;;;5038910;28;20593;-81
2023/01/13 02:27:16;;;;;;;5.90;1.60;;;9.70;99.90;;;;;;4979976;28;20432;-79
2023/01/13 02:33:06;;;;;;;9.23;1.73;;;9.60;99.90;;;;;;5035763;28;20616;-77
2023/01/13 02:35:40;;;;;;;10.23;2.90;;;9.60;99.90;;;;;;5036785;28;20851;-77
2023/01/13 02:38:10;;;;;;;7.60;1.77;;;9.50;99.90;;;;;;5036933;28;20546;-77
2023/01/13 02:40:45;;;;;;;5.30;1.83;;;9.50;99.90;;;;;;5034567;28;20454;-77
2023/01/13 02:46:06;;;;;;;11.60;2.37;;;9.60;99.90;;;;;;5036718;28;20463;-77
2023/01/13 02:48:35;;;;;;;7.97;2.17;;;9.60;99.90;;;;;;5019403;28;20452;-77
2023/01/13 02:51:07;;;;;;;16.70;2.87;;;9.50;99.90;;;;;;5035009;28;20452;-77
2023/01/13 02:53:43;;;;;;;6.67;1.77;;;9.50;99.90;;;;;;5035027;28;20480;-77
2023/01/13 02:56:11;;;;;;;12.20;2.10;;;9.40;99.90;;;;;;5036766;28;20472;-77
2023/01/13 02:58:40;;;;;;;9.60;1.63;;;9.40;99.90;;;;;;5039526;28;20542;-77
2023/01/13 03:01:09;;;;;;;8.50;1.67;;;9.40;99.90;;;;;;5036930;28;20455;-78
2023/01/13 03:03:35;;;;;;;11.97;2.20;;;9.40;99.90;;;;;;5035837;28;20466;-81
2023/01/13 03:06:14;;;;;;;6.03;1.60;;;9.40;99.90;;;;;;5036162;28;20499;-78
2023/01/13 03:08:47;;;;;;;8.93;1.93;;;9.40;99.90;;;;;;5035203;28;20449;-76
2023/01/13 03:11:17;;;;;;;12.67;2.03;;;9.40;99.90;;;;;;5035613;28;20454;-77
2023/01/13 03:14:05;;;;;;;10.30;1.87;;;9.40;99.90;;;;;;5036569;28;20488;-78
2023/01/13 03:16:45;;;;;;;8.00;1.20;;;9.40;99.90;;;;;;5037267;28;20449;-78
2023/01/13 03:19:19;;;;;;;8.50;1.63;;;9.30;99.90;;;;;;5037587;28;21289;-78
2023/01/13 03:21:52;;;;;;;9.67;1.50;;;9.20;99.90;;;;;;5037446;28;20455;-77
2023/01/13 03:24:26;;;;;;;5.37;1.20;;;9.10;99.90;;;;;;5039616;28;20572;-78
2023/01/13 03:27:00;;;;;;;5.57;1.67;;;9.10;99.90;;;;;;5040031;28;20435;-78
2023/01/13 03:29:33;;;;;;;8.60;1.70;;;9.00;99.90;;;;;;5038709;28;20436;-77
2023/01/13 03:32:07;;;;;;;5.77;1.23;;;8.90;99.90;;;;;;5037973;28;20560;-77
2023/01/13 03:34:38;;;;;;;8.40;1.83;;;8.90;99.90;;;;;;5036711;28;20835;-80
2023/01/13 03:37:08;;;;;;;4.93;1.80;;;8.80;99.90;;;;;;5034170;28;20457;-81
2023/01/13 03:39:39;;;;;;;7.80;1.60;;;8.80;99.90;;;;;;5032817;28;20456;-78
2023/01/13 03:42:10;;;;;;;3.43;1.37;;;8.70;99.90;;;;;;5034821;28;20442;-76
2023/01/13 03:44:41;;;;;;;7.47;3.47;;;8.70;99.90;;;;;;5031307;28;20473;-77
2023/01/13 03:47:20;;;;;;;7.10;1.47;;;8.60;99.90;;;;;;5031867;28;20557;-78
2023/01/13 03:49:54;;;;;;;3.17;1.10;;;8.60;99.90;;;;;;5032095;28;21116;-78
2023/01/13 03:52:24;;;;;;;4.70;1.47;;;8.50;99.90;;;;;;5031359;28;20489;-77
2023/01/13 03:54:58;;;;;;;7.10;1.63;;;8.40;99.90;;;;;;5031511;28;20484;-78
2023/01/13 03:57:29;;;;;;;11.43;1.50;;;8.40;99.90;;;;;;5031878;28;20453;-78
2023/01/13 04:00:00;;;;;;;4.07;1.27;;;8.30;99.90;;;;;;5031167;28;20429;-78
2023/01/13 04:02:41;;;;;;;8.97;2.43;;;8.30;99.90;;;;;;5032568;28;20449;-78
2023/01/13 04:05:09;;;;;;;7.27;1.40;;;8.30;99.90;;;;;;5031522;28;20485;-78
2023/01/13 04:07:46;;;;;;;6.60;1.50;;;8.30;99.90;;;;;;5031805;28;20452;-78
2023/01/13 04:10:18;;;;;;;5.67;1.43;;;8.30;99.90;;;;;;5030753;28;20444;-77
2023/01/13 04:13:03;;;;;;;6.17;1.50;;;8.20;99.90;;;;;;5031594;28;20484;-77
2023/01/13 04:15:32;;;;;;;8.77;1.43;;;8.10;99.90;;;;;;5011692;28;20450;-77
2023/01/13 04:18:12;;;;;;;5.57;1.67;;;8.10;99.90;;;;;;5012281;28;20515;-78
2023/01/13 04:20:39;;;;;;;6.20;1.40;;;8.10;99.90;;;;;;5010694;28;21087;-77
2023/01/13 04:23:06;;;;;;;4.30;1.30;;;8.10;99.90;;;;;;5030715;28;20445;-77
2023/01/13 04:25:34;;;;;;;4.00;1.10;;;8.10;99.90;;;;;;5030797;28;20457;-78
2023/01/13 04:28:02;;;;;;;6.33;1.50;;;8.10;99.90;;;;;;5031520;28;20453;-78
2023/01/13 04:30:28;;;;;;;3.90;1.37;;;8.10;99.90;;;;;;5030613;28;20455;-79
2023/01/13 04:32:55;;;;;;;5.57;1.40;;;8.20;99.90;;;;;;5031211;28;20481;-79
2023/01/13 04:35:23;;;;;;;8.27;1.40;;;8.20;99.90;;;;;;5032317;28;20474;-79
2023/01/13 04:37:50;;;;;;;6.50;1.43;;;8.20;99.90;;;;;;5036830;28;20460;-78
2023/01/13 04:40:17;;;;;;;4.90;1.30;;;8.20;99.90;;;;;;5036986;28;20452;-80
2023/01/13 04:42:44;;;;;;;3.10;1.20;;;8.30;99.90;;;;;;5039012;28;20475;-80
2023/01/13 04:45:12;;;;;;;8.80;1.37;;;8.30;99.90;;;;;;5042982;28;20472;-80
2023/01/13 04:47:40;;;;;;;7.27;1.50;;;8.40;99.90;;;;;;5041070;28;20453;-80
2023/01/13 04:50:09;;;;;;;7.50;1.77;;;8.50;99.90;;;;;;5036830;28;20507;-79
2023/01/13 04:52:37;;;;;;;8.83;1.80;;;8.50;99.90;;;;;;5037277;28;20497;-78
2023/01/13 04:55:04;;;;;;;4.90;1.57;;;8.60;99.90;;;;;;5037107;28;20465;-79
2023/01/13 04:57:33;;;;;;;3.97;1.50;;;8.60;99.90;;;;;;5037405;28;20453;-78
2023/01/13 05:00:00;;;;;;;8.27;2.00;;;8.70;99.90;;;;;;5036682;28;20452;-78
2023/01/13 05:02:27;;;;;;;5.93;1.67;;;8.70;99.90;;;;;;5037393;28;20523;-77
2023/01/13 05:04:54;;;;;;;8.00;1.80;;;8.70;99.90;;;;;;5037242;28;20476;-80
2023/01/13 05:07:21;;;;;;;10.23;1.70;;;8.70;99.90;;;;;;5037531;28;20445;-81
2023/01/13 05:09:49;;;;;;;8.97;2.10;;;8.80;99.90;;;;;;5029563;28;20483;-79
2023/01/13 05:17:45;;;;;;;9.43;1.60;;;8.90;99.90;;;;;;5044770;28;20441;-80
2023/01/13 05:20:12;;;;;;;17.13;2.27;;;8.80;99.90;;;;;;5045973;28;20880;-79
2023/01/13 05:25:27;;;;;;;12.37;2.13;;;8.70;99.90;;;;;;5043660;28;20500;-80
2023/01/13 05:27:55;;;;;;;11.27;2.13;;;8.60;99.90;;;;;;5044229;28;20498;-80
2023/01/13 05:30:24;;;;;;;17.60;2.60;;;8.60;99.90;;;;;;5043131;28;20453;-80
2023/01/13 05:32:51;;;;;;;9.33;1.70;;;8.50;99.90;;;;;;5045008;28;20487;-78
2023/01/13 05:35:18;;;;;;;6.60;1.43;;;8.50;99.90;;;;;;5043938;28;20508;-80
2023/01/13 05:37:45;;;;;;;7.67;2.10;;;8.50;99.90;;;;;;5042730;28;20519;-78
2023/01/13 05:43:20;;;;;;;11.33;2.40;;;8.60;99.90;;;;;;5040079;28;20516;-78
2023/01/13 05:45:48;;;;;;;8.03;1.83;;;8.70;99.90;;;;;;5039442;28;20497;-78
2023/01/13 05:48:16;;;;;;;10.40;1.90;;;8.70;99.90;;;;;;5036061;28;20489;-79
2023/01/13 05:50:43;;;;;;;9.47;2.47;;;8.60;99.90;;;;;;5031457;28;20536;-78
2023/01/13 05:53:10;;;;;;;9.23;1.70;;;8.50;99.90;;;;;;5036151;28;20484;-77
2023/01/13 05:55:39;;;;;;;9.40;1.80;;;8.50;99.90;;;;;;5018361;28;20472;-78
2023/01/13 05:58:07;;;;;;;11.70;1.93;;;8.50;99.90;;;;;;5028258;28;20456;-78
2023/01/13 06:00:34;;;;;;;13.93;3.20;;;8.50;99.90;;;;;;5033534;28;20465;-76
2023/01/13 06:03:01;;;;;;;4.57;1.50;;;8.50;99.90;;;;;;5022754;28;20560;-79
2023/01/13 06:05:29;;;;;;;6.70;2.27;;;8.50;99.90;;;;;;5032751;28;20503;-78
2023/01/13 06:07:57;;;;;;;10.90;2.40;;;8.40;99.90;;;;;;5031776;28;21609;-78
2023/01/13 06:10:24;;;;;;;6.90;1.30;;;8.40;99.90;;;;;;5038373;28;20452;-78
2023/01/13 06:12:51;;;;;;;7.03;2.10;;;8.50;99.90;;;;;;5034302;28;20484;-79
2023/01/13 06:15:19;;;;;;;6.33;1.50;;;8.50;99.90;;;;;;5039231;28;21014;-79
2023/01/13 06:17:47;;;;;;;8.43;2.10;;;8.60;99.90;;;;;;5047995;28;20464;-78
2023/01/13 06:20:14;;;;;;;8.63;1.80;;;8.60;99.90;;;;;;5043854;28;20446;-79
2023/01/13 06:22:44;;;;;;;8.93;1.80;;;8.70;99.90;;;;;;5030127;28;20449;-78
2023/01/13 06:25:19;;;;;;;7.17;1.57;;;8.70;99.90;;;;;;5039149;28;20556;-78
2023/01/13 06:27:46;;;;;;;13.37;2.10;;;8.70;99.90;;;;;;5037423;28;20462;-78
2023/01/13 06:30:13;;;;;;;9.17;2.20;;;8.70;99.90;;;;;;5050751;28;20453;-80
2023/01/13 06:32:45;;;;;;;11.50;2.23;;;8.70;99.90;;;;;;5040412;28;20488;-78
2023/01/13 06:35:16;;;;;;;9.00;1.97;;;8.70;99.90;;;;;;5020227;28;20991;-78
2023/01/13 06:37:44;;;;;;;9.57;2.17;;;8.60;99.90;;;;;;5046437;28;20459;-78
2023/01/13 06:40:13;;;;;;;7.23;2.17;;;8.60;99.90;;;;;;5036040;28;20472;-79
2023/01/13 06:45:27;;;;;;;9.50;2.27;;;8.50;99.90;;;;;;5038527;28;21007;-79
2023/01/13 06:47:57;;;;;;;11.23;3.20;;;8.30;99.90;;;;;;5036181;28;20452;-78
2023/01/13 06:50:24;;;;;;;9.57;2.20;;;8.30;99.90;;;;;;5040206;28;20899;-78
2023/01/13 06:52:54;;;;;;;13.80;2.23;;;8.30;99.90;;;;;;5032342;28;20567;-78
2023/01/13 06:55:20;;;;;;;9.33;2.37;;;8.20;99.90;;;;;;5038868;28;20482;-78
2023/01/13 06:57:49;;;;;;;8.67;1.87;;;8.30;99.90;;;;;;5030300;28;21053;-77
2023/01/13 07:00:17;;;;;;;6.13;1.47;;;8.20;99.90;;;;;;5028050;28;20457;-77
2023/01/13 07:02:44;;;;;;;13.10;1.97;;;8.20;99.90;;;;;;5036191;28;20528;-78
2023/01/13 07:05:12;;;;;;;4.70;1.90;;;8.10;99.90;;;;;;5034993;28;20488;-79
2023/01/13 07:07:40;;;;;;;14.20;2.23;;;8.10;99.90;;;;;;5029307;28;20464;-78
2023/01/13 07:10:08;;;;;;;6.20;1.43;;;8.10;99.90;;;;;;5028100;28;20517;-77
2023/01/13 07:15:17;;;;;;;7.10;2.30;;;8.10;99.90;;;;;;5032963;28;20487;-78
2023/01/13 07:15:23;;;;;;;5.40;1.47;;;8.10;99.90;;;;;;5032781;28;20515;-78
2023/01/13 07:17:50;;;;;;;7.73;1.93;;;8.20;99.90;;;;;;5021517;28;20460;-77
2023/01/13 07:20:18;;;;;;;7.27;2.40;;;8.10;99.90;;;;;;5033244;28;20442;-78
2023/01/13 07:22:45;;;;;;;7.73;1.63;;;8.10;99.90;;;;;;5024407;28;20501;-78
2023/01/13 07:25:12;;;;;;;5.70;2.00;;;8.10;99.90;;;;;;5032205;28;20597;-78
2023/01/13 07:27:39;;;;;;;9.33;2.13;;;8.20;99.90;;;;;;5034011;28;20575;-82
2023/01/13 07:30:07;;;;;;;8.93;3.63;;;8.10;99.90;;;;;;5055044;28;20456;-77
2023/01/13 07:32:34;;;;;;;13.07;1.80;;;8.10;99.90;;;;;;5054501;28;20492;-78
2023/01/13 07:35:04;;;;;;;9.90;1.93;;;8.10;99.90;;;;;;5036040;28;20468;-78
2023/01/13 07:37:33;;;;;;;13.33;4.50;;;8.10;99.90;;;;;;5035494;28;20449;-78
2023/01/13 07:40:00;;;;;;;8.07;2.10;;;8.10;99.90;;;;;;5033118;28;20449;-77
2023/01/13 07:45:12;;;;;;;4.13;1.80;;;8.10;99.90;;;;;;5043013;28;20459;-78
2023/01/13 07:47:40;;;;;;;7.33;1.73;;;8.10;99.90;;;;;;5026622;28;20452;-78
2023/01/13 07:50:08;;;;;;;6.13;1.60;;;8.10;99.90;;;;;;5034014;28;20536;-79
2023/01/13 07:52:36;;;;;;;9.83;1.30;;;8.10;99.90;;;;;;5031823;28;20456;-80
2023/01/13 07:55:03;;;;;;;7.60;1.40;;;8.10;99.90;;;;;;5033810;28;20479;-80
2023/01/13 07:57:30;;;;;;;9.47;2.53;;;8.10;99.90;;;;;;5023685;28;21085;-77
2023/01/13 07:59:57;;;;;;;5.37;2.60;;;8.10;99.90;;;;;;5033259;28;20539;-78
2023/01/13 08:02:24;;;;;;;7.53;2.00;;;8.00;99.90;;;;;;5033234;28;20440;-77
2023/01/13 08:04:50;;;;;;;9.80;1.90;;;8.00;99.90;;;;;;5031143;28;20897;-77
2023/01/13 08:07:17;;;;;;;7.90;1.60;;;8.10;99.90;;;;;;5016078;28;20457;-78
2023/01/13 08:09:45;;;;;;;6.43;1.40;;;8.10;99.90;;;;;;5035570;28;20521;-78
2023/01/13 08:15:09;;;;;;;5.47;1.90;;;8.30;99.90;;;;;;4973072;28;20475;-77
2023/01/13 08:17:36;;;;;;;16.40;2.10;;;8.30;99.90;;;;;;5017629;28;20449;-78
2023/01/13 08:20:03;;;;;;;11.93;3.20;;;8.40;99.90;;;;;;5034883;28;20516;-76
2023/01/13 08:22:32;;;;;;;10.77;2.03;;;8.50;99.90;;;;;;5034287;28;20448;-76
2023/01/13 08:25:00;;;;;;;7.03;1.83;;;8.60;99.90;;;;;;5027350;28;20469;-76
2023/01/13 08:27:27;;;;;;;10.03;1.83;;;8.60;99.90;;;;;;5032812;28;20452;-77
2023/01/13 08:29:54;;;;;;;10.10;3.20;;;8.70;99.90;;;;;;5031281;28;20449;-76
2023/01/13 08:32:20;;;;;;;4.83;1.73;;;8.70;99.90;;;;;;5031911;28;20990;-76
2023/01/13 08:34:47;;;;;;;10.23;2.40;;;8.70;99.90;;;;;;5017038;28;20497;-77
2023/01/13 08:37:14;;;;;;;6.10;2.03;;;8.80;99.90;;;;;;5014521;28;20441;-77
2023/01/13 08:39:41;;;;;;;12.00;2.40;;;8.80;99.90;;;;;;5028773;28;20584;-76
2023/01/13 08:42:09;;;;;;;9.20;2.60;;;8.80;99.90;;;;;;5029832;28;20549;-77
2023/01/13 08:44:36;;;;;;;7.23;1.53;;;8.90;99.90;;;;;;5016448;28;20573;-76
2023/01/13 08:47:03;;;;;;;11.33;2.10;;;8.90;99.90;;;;;;5031895;28;20537;-77
2023/01/13 08:49:30;;;;;;;9.20;2.10;;;8.90;99.90;;;;;;5031448;28;20888;-76
2023/01/13 08:51:57;;;;;;;11.37;2.17;;;8.90;99.90;;;;;;5030011;28;20531;-76
2023/01/13 08:54:24;;;;;;;11.50;2.73;;;8.90;99.90;;;;;;5023700;28;20484;-76
2023/01/13 08:56:50;;;;;;;7.47;2.00;;;8.90;99.90;;;;;;5031991;28;20454;-77
2023/01/13 08:59:20;;;;;;;8.70;2.63;;;8.90;99.90;;;;;;5032411;28;20923;-77
2023/01/13 09:01:47;;;;;;;8.37;2.07;;;9.00;99.90;;;;;;5032050;28;20944;-77
2023/01/13 09:04:17;;;;;;;11.97;2.33;;;9.00;99.90;;;;;;5031525;28;20561;-77
2023/01/13 09:06:44;;;;;;;8.43;1.70;;;9.00;99.90;;;;;;5032527;28;20458;-78
2023/01/13 09:09:12;;;;;;;10.10;2.60;;;9.10;99.90;;;;;;5031640;28;20514;-76
2023/01/13 09:14:29;;;;;;;9.13;1.93;;;9.00;99.90;;;;;;5036961;28;20491;-77
2023/01/13 09:16:56;;;;;;;8.47;2.03;;;9.00;99.90;;;;;;5051683;28;20464;-79
2023/01/13 09:19:23;;;;;;;11.97;2.20;;;9.00;99.90;;;;;;5034282;28;20470;-78
2023/01/13 09:21:51;;;;;;;12.83;2.10;;;9.00;99.90;;;;;;5029162;28;20939;-80
2023/01/13 09:24:18;;;;;;;6.37;2.00;;;9.10;99.90;;;;;;5015948;28;21044;-79
2023/01/13 09:26:45;;;;;;;7.67;2.40;;;9.00;99.90;;;;;;5029200;28;20500;-77
2023/01/13 09:29:11;;;;;;;9.37;2.30;;;9.00;99.90;;;;;;5029037;28;20551;-76
2023/01/13 09:31:40;;;;;;;5.67;2.00;;;9.00;99.90;;;;;;5032797;28;20454;-78
2023/01/13 09:36:52;;;;;;;10.23;2.10;;;9.20;99.90;;;;;;5044854;28;20493;-77
2023/01/13 09:39:19;;;;;;;9.73;2.40;;;9.30;99.90;;;;;;5034445;28;20535;-77
2023/01/13 09:44:44;;;;;;;11.93;2.30;;;9.40;99.90;;;;;;5031651;28;20466;-78
2023/01/13 09:47:22;;;;;;;13.97;3.43;;;9.50;99.90;;;;;;5044295;28;20510;-77
2023/01/13 09:49:49;;;;;;;7.57;2.40;;;9.60;99.90;;;;;;5034976;28;20527;-79
2023/01/13 09:52:19;;;;;;;13.03;3.40;;;9.50;99.90;;;;;;5034327;28;20947;-78
2023/01/13 09:54:49;;;;;;;13.63;3.77;;;9.60;99.90;;;;;;5030476;28;20486;-80
2023/01/13 09:57:18;;;;;;;8.03;2.27;;;9.70;99.90;;;;;;5045356;28;20454;-78
2023/01/13 09:59:45;;;;;;;11.30;3.00;;;9.80;99.90;;;;;;5033081;28;20478;-78
2023/01/13 10:02:42;;;;;;;8.23;2.60;;;9.90;99.90;;;;;;5027402;28;20518;-77
2023/01/13 10:05:15;;;;;;;7.23;2.93;;;9.90;99.90;;;;;;5012825;28;20481;-78
2023/01/13 10:07:48;;;;;;;12.73;2.70;;;9.90;99.90;;;;;;5033841;28;20454;-77
2023/01/13 10:10:21;;;;;;;19.90;2.67;;;9.90;99.90;;;;;;5033317;28;20542;-77
2023/01/13 10:15:34;;;;;;;11.13;3.23;;;9.90;99.90;;;;;;5028498;28;20472;-77
2023/01/13 10:18:09;;;;;;;14.17;3.30;;;9.70;99.90;;;;;;5031082;28;20492;-78
2023/01/13 10:20:47;;;;;;;13.77;3.13;;;9.80;99.90;;;;;;5028904;28;20443;-77
2023/01/13 10:23:42;;;;;;;13.00;2.80;;;9.80;99.90;;;;;;5028090;28;21046;-78
2023/01/13 10:26:24;;;;;;;13.97;3.83;;;9.90;99.90;;;;;;5020745;28;20970;-77
2023/01/13 10:28:52;;;;;;;9.80;2.60;;;9.90;99.90;;;;;;5026805;28;20446;-77
2023/01/13 10:31:20;;;;;;;11.87;2.30;;;9.80;99.90;;;;;;5032346;28;20920;-77
2023/01/13 10:33:49;;;;;;;6.50;2.20;;;10.00;99.90;;;;;;5033039;28;20494;-79
2023/01/13 10:36:20;;;;;;;15.70;2.90;;;10.00;99.90;;;;;;5031978;28;20442;-78
2023/01/13 10:38:48;;;;;;;12.60;2.43;;;9.90;99.90;;;;;;5033635;28;20467;-78
2023/01/13 10:41:24;;;;;;;13.30;3.40;;;10.00;99.90;;;;;;5012000;28;20843;-77
2023/01/13 10:44:01;;;;;;;13.87;2.90;;;9.90;99.90;;;;;;5013168;28;20522;-76
2023/01/13 10:46:28;;;;;;;12.20;2.60;;;10.00;99.90;;;;;;5037959;28;20906;-76
2023/01/13 10:48:58;;;;;;;10.63;3.00;;;10.20;99.90;;;;;;5032661;28;20459;-77
2023/01/13 10:51:26;;;;;;;9.50;3.00;;;10.30;99.90;;;;;;5031846;28;20454;-77
2023/01/13 10:53:57;;;;;;;16.93;3.77;;;10.40;99.90;;;;;;5031749;28;20496;-77
2023/01/13 10:56:26;;;;;;;9.50;2.90;;;10.70;99.90;;;;;;5043424;28;20542;-77
2023/01/13 10:58:52;;;;;;;20.07;3.30;;;10.90;99.90;;;;;;5051573;28;20458;-78
2023/01/13 11:01:29;;;;;;;8.70;2.40;;;11.10;99.90;;;;;;5030790;28;20455;-77
2023/01/13 11:03:57;;;;;;;11.03;3.37;;;11.30;99.90;;;;;;5032153;28;20471;-78
2023/01/13 11:06:25;;;;;;;10.63;2.43;;;11.50;99.90;;;;;;5027227;28;20546;-78
2023/01/13 11:08:56;;;;;;;11.03;2.67;;;11.40;99.90;;;;;;5046941;28;20455;-78
2023/01/13 11:11:43;;;;;;;11.83;2.20;;;11.50;99.90;;;;;;5016507;28;20448;-77
2023/01/13 11:14:38;;;;;;;17.20;3.27;;;11.30;99.90;;;;;;5032150;28;20495;-77
2023/01/13 11:17:32;;;;;;;12.83;2.90;;;11.00;99.90;;;;;;5029977;28;20942;-76
2023/01/13 11:20:13;;;;;;;10.40;3.60;;;10.80;99.90;;;;;;5031031;28;20455;-76
2023/01/13 11:22:45;;;;;;;16.70;2.93;;;10.70;99.90;;;;;;5016105;28;20518;-78
2023/01/13 11:25:17;;;;;;;5.53;1.93;;;10.60;99.90;;;;;;5014258;28;20464;-77
2023/01/13 11:27:47;;;;;;;11.80;2.90;;;10.60;99.90;;;;;;5012044;28;20448;-78
2023/01/13 11:30:25;;;;;;;11.47;2.87;;;10.40;99.90;;;;;;5012336;28;20498;-77
2023/01/13 11:33:10;;;;;;;12.40;3.23;;;10.30;99.90;;;;;;5029442;28;20436;-77
2023/01/13 11:35:43;;;;;;;12.33;2.83;;;10.40;99.90;;;;;;5034158;28;20556;-76
2023/01/13 11:38:18;;;;;;;13.73;3.73;;;10.30;99.90;;;;;;5040904;28;20457;-78
2023/01/13 11:40:48;;;;;;;19.63;3.67;;;10.30;99.90;;;;;;5021319;28;20458;-77
2023/01/13 11:43:21;;;;;;;21.60;3.07;;;10.00;99.90;;;;;;5029386;28;20448;-78
2023/01/13 11:45:52;;;;;;;12.60;2.53;;;9.80;99.90;;;;;;5024346;28;20466;-78
2023/01/13 11:48:22;;;;;;;10.03;2.70;;;9.60;99.90;;;;;;5040012;28;20452;-77
2023/01/13 11:50:57;;;;;;;11.80;3.17;;;9.40;99.90;;;;;;5067256;22;20500;-78
2023/01/13 11:53:41;;;;;;;9.97;2.30;;;9.30;99.90;;;;;;5040735;28;20456;-79
2023/01/13 11:56:23;;;;;;;10.30;2.70;;;9.30;99.90;;;;;;5055340;28;20465;-80
2023/01/13 11:59:13;;;;;;;15.40;2.97;;;9.40;99.90;;;;;;5052641;28;20876;-80
2023/01/13 12:02:02;;;;;;;8.17;2.53;;;9.40;99.90;;;;;;5031185;28;20475;-80
2023/01/13 12:04:37;;;;;;;23.13;4.00;;;9.30;99.90;;;;;;5032806;28;20451;-79
2023/01/13 12:07:18;;;;;;;13.33;3.40;;;9.30;99.90;;;;;;5042216;28;20618;-79
2023/01/13 12:09:59;;;;;;;13.53;3.43;;;9.20;99.90;;;;;;5051555;28;20460;-79
2023/01/13 12:12:38;;;;;;;11.60;2.43;;;9.10;99.90;;;;;;5052191;28;20460;-80
2023/01/13 12:15:51;;;;;;;15.27;2.90;;;9.00;99.90;;;;;;5033424;28;20845;-79
2023/01/13 12:18:32;;;;;;;17.70;2.97;;;8.90;99.90;;;;;;4975501;28;20575;-80
2023/01/13 12:21:17;;;;;;;15.60;3.17;;;8.80;99.90;;;;;;5026924;28;20487;-79
2023/01/13 12:23:52;;;;;;;13.30;3.60;;;8.70;99.90;;;;;;5036827;28;20452;-78
2023/01/13 12:26:18;;;;;;;13.70;2.43;;;8.70;99.90;;;;;;5036536;28;20441;-78
2023/01/13 12:28:49;;;;;;;13.10;2.50;;;8.60;99.90;;;;;;5031186;28;20488;-78
2023/01/13 12:31:18;;;;;;;10.27;2.33;;;8.50;99.90;;;;;;5034778;28;21005;-77
2023/01/13 12:33:57;;;;;;;8.00;2.43;;;8.40;99.90;;;;;;5050724;28;20447;-78
2023/01/13 12:36:32;;;;;;;12.30;3.10;;;8.30;99.90;;;;;;5043196;28;20528;-79
2023/01/13 12:39:13;;;;;;;15.03;3.67;;;8.30;99.90;;;;;;5032098;28;20510;-77
2023/01/13 12:44:27;;;;;;;9.13;2.77;;;8.30;99.90;;;;;;5040008;28;20452;-78
2023/01/13 12:46:56;;;;;;;16.73;4.17;;;8.30;99.90;;;;;;5051046;28;20483;-80
2023/01/13 12:49:28;;;;;;;9.10;2.80;;;8.30;99.90;;;;;;5040964;28;20481;-80
2023/01/13 12:52:14;;;;;;;16.00;3.20;;;8.30;99.90;;;;;;5031483;28;20498;-79
2023/01/13 12:55:12;;;;;;;12.57;2.67;;;8.30;99.90;;;;;;5031966;28;20506;-80
2023/01/13 12:57:39;;;;;;;15.80;3.30;;;8.30;99.90;;;;;;5049792;28;20447;-80
2023/01/13 13:00:14;;;;;;;13.90;3.83;;;8.40;99.90;;;;;;5048875;28;20455;-79
2023/01/13 13:02:42;;;;;;;12.47;3.23;;;8.80;99.90;;;;;;5050251;28;20958;-80
2023/01/13 13:05:41;;;;;;;8.23;2.70;;;9.00;99.90;;;;;;5038617;28;20449;-79
2023/01/13 13:08:21;;;;;;;7.00;2.47;;;9.20;99.90;;;;;;5042437;28;20508;-79
2023/01/13 13:13:16;;;;;;;9.83;2.43;;;9.20;99.90;;;;;;5046017;28;20476;-78
2023/01/13 13:14:05;;;;;;;8.17;2.50;;;9.00;99.90;;;;;;5036360;28;20471;-79
2023/01/13 13:16:59;;;;;;;7.37;1.60;;;8.90;99.90;;;;;;5045727;28;20463;-77
2023/01/13 13:19:46;;;;;;;8.60;2.30;;;9.10;99.90;;;;;;5056609;28;20456;-80
2023/01/13 13:22:42;;;;;;;9.33;2.03;;;9.30;99.90;;;;;;5055415;28;20550;-80
2023/01/13 13:25:26;;;;;;;7.37;2.43;;;9.30;99.90;;;;;;5034243;28;20438;-77
2023/01/13 13:28:17;;;;;;;14.03;2.90;;;9.10;99.90;;;;;;5054217;28;20914;-79
2023/01/13 13:31:08;;;;;;;7.80;2.70;;;9.00;99.90;;;;;;5053603;28;20927;-78
2023/01/13 13:33:47;;;;;;;15.43;2.40;;;9.00;99.90;;;;;;5055566;28;20455;-79
2023/01/13 13:36:37;;;;;;;11.70;2.87;;;9.00;99.90;;;;;;5054199;28;20491;-77
2023/01/13 13:47:41;;;;;;;7.80;2.73;;;9.00;99.90;;;;;;5036975;28;20507;-79
2023/01/13 13:50:14;;;;;;;15.13;2.63;;;9.00;99.90;;;;;;5039638;28;20827;-80
2023/01/13 13:52:44;;;;;;;13.57;2.90;;;8.90;99.90;;;;;;5041411;28;20532;-80
2023/01/13 13:55:17;;;;;;;7.40;2.30;;;8.90;99.90;;;;;;5036522;28;20911;-80
2023/01/13 13:57:49;;;;;;;11.53;3.60;;;9.00;99.90;;;;;;5035428;28;20451;-80
2023/01/13 14:00:24;;;;;;;9.97;2.87;;;9.00;99.90;;;;;;5034051;28;21193;-80
2023/01/13 14:02:54;;;;;;;12.83;2.13;;;9.10;99.90;;;;;;5032581;28;20561;-78
2023/01/13 14:05:23;;;;;;;12.27;2.40;;;9.20;99.90;;;;;;5033974;28;20456;-80
2023/01/13 14:07:52;;;;;;;9.23;2.57;;;9.10;99.90;;;;;;5041343;28;20495;-80
2023/01/13 14:10:23;;;;;;;15.17;3.20;;;9.00;99.90;;;;;;5036643;28;21029;-79
2023/01/13 14:12:51;;;;;;;9.40;2.30;;;9.00;99.90;;;;;;5040498;28;20446;-79